SUMZM TVSA-TGPY
Flight info
| Callsign | SUMZM |
|---|---|
| Flight time | 0h 36m |
| Altitude | 9000 |
| Route | RESAS1A RESAS A324 DUSAL DCT GND |
| Aircraft | PC12/L-SDFGRWY/S |
Departure
| Time | 2026-05-08 17:24 |
|---|---|
| Airport | Argyle International Airport (TVSA) |
Arrival
| Time | 2026-05-08 18:00 |
|---|---|
| Airport | Maurice Bishop International Airport (TGPY) |
| Time | Latitude | Longitude | Altitude | Speed | Heading |
|---|---|---|---|---|---|
| 2026-05-08 17:19 | 13.16182 | -61.15069 | 96 ft | 0 kts | 19° |
| 2026-05-08 17:21 | 13.16190 | -61.15066 | 96 ft | 5 kts | 28° |
| 2026-05-08 17:21 | 13.16184 | -61.15037 | 96 ft | 6 kts | 173° |
| 2026-05-08 17:21 | 13.16129 | -61.15059 | 96 ft | 12 kts | 201° |
| 2026-05-08 17:22 | 13.16048 | -61.15064 | 96 ft | 14 kts | 117° |
| 2026-05-08 17:22 | 13.16018 | -61.14987 | 99 ft | 11 kts | 110° |
| 2026-05-08 17:22 | 13.15989 | -61.14898 | 104 ft | 15 kts | 89° |
| 2026-05-08 17:22 | 13.16012 | -61.14871 | 103 ft | 0 kts | 21° |
| 2026-05-08 17:23 | 13.16226 | -61.14791 | 95 ft | 64 kts | 24° |
| 2026-05-08 17:23 | 13.16757 | -61.14598 | 182 ft | 88 kts | 21° |
| 2026-05-08 17:23 | 13.17341 | -61.14398 | 487 ft | 93 kts | 21° |
| 2026-05-08 17:23 | 13.18004 | -61.14129 | 711 ft | 106 kts | 24° |
| 2026-05-08 17:24 | 13.18685 | -61.13862 | 1054 ft | 102 kts | 25° |
| 2026-05-08 17:24 | 13.19369 | -61.13595 | 1417 ft | 107 kts | 26° |
| 2026-05-08 17:24 | 13.20073 | -61.13321 | 1793 ft | 110 kts | 29° |
| 2026-05-08 17:24 | 13.20832 | -61.13024 | 2172 ft | 125 kts | 23° |
| 2026-05-08 17:25 | 13.21685 | -61.12695 | 2565 ft | 140 kts | 22° |
| 2026-05-08 17:25 | 13.22608 | -61.12338 | 2906 ft | 143 kts | 24° |
| 2026-05-08 17:25 | 13.23533 | -61.11983 | 3289 ft | 140 kts | 23° |
| 2026-05-08 17:25 | 13.24475 | -61.11619 | 3658 ft | 149 kts | 24° |
| 2026-05-08 17:26 | 13.25451 | -61.11242 | 3996 ft | 148 kts | 24° |
| 2026-05-08 17:26 | 13.26415 | -61.10872 | 4367 ft | 149 kts | 24° |
| 2026-05-08 17:26 | 13.27385 | -61.10489 | 4735 ft | 148 kts | 29° |
| 2026-05-08 17:26 | 13.28004 | -61.09703 | 5088 ft | 146 kts | 77° |
| 2026-05-08 17:27 | 13.27865 | -61.08696 | 5451 ft | 151 kts | 112° |
| 2026-05-08 17:27 | 13.27237 | -61.07796 | 5821 ft | 155 kts | 125° |
| 2026-05-08 17:27 | 13.26588 | -61.06924 | 6186 ft | 156 kts | 123° |
| 2026-05-08 17:27 | 13.25960 | -61.06002 | 6547 ft | 159 kts | 122° |
| 2026-05-08 17:28 | 13.25330 | -61.05056 | 6896 ft | 161 kts | 122° |
| 2026-05-08 17:28 | 13.24694 | -61.04096 | 7249 ft | 163 kts | 122° |
| 2026-05-08 17:28 | 13.24057 | -61.03135 | 7601 ft | 164 kts | 122° |
| 2026-05-08 17:28 | 13.23413 | -61.02163 | 7959 ft | 164 kts | 122° |
| 2026-05-08 17:29 | 13.22702 | -61.01213 | 8310 ft | 174 kts | 136° |
| 2026-05-08 17:29 | 13.21604 | -61.00638 | 8680 ft | 188 kts | 165° |
| 2026-05-08 17:29 | 13.20253 | -61.00692 | 8997 ft | 202 kts | 195° |
| 2026-05-08 17:29 | 13.18857 | -61.01220 | 9010 ft | 224 kts | 201° |
| 2026-05-08 17:30 | 13.17382 | -61.01835 | 9009 ft | 237 kts | 201° |
| 2026-05-08 17:30 | 13.15817 | -61.02464 | 9009 ft | 245 kts | 200° |
| 2026-05-08 17:30 | 13.14199 | -61.03091 | 9010 ft | 250 kts | 200° |
| 2026-05-08 17:30 | 13.12552 | -61.03725 | 9015 ft | 254 kts | 200° |
| 2026-05-08 17:31 | 13.10900 | -61.04377 | 9007 ft | 254 kts | 202° |
| 2026-05-08 17:31 | 13.09408 | -61.05346 | 8994 ft | 255 kts | 220° |
| 2026-05-08 17:31 | 13.08052 | -61.06531 | 9001 ft | 255 kts | 220° |
| 2026-05-08 17:31 | 13.06717 | -61.07693 | 9001 ft | 256 kts | 220° |
| 2026-05-08 17:32 | 13.05349 | -61.08875 | 9001 ft | 257 kts | 220° |
| 2026-05-08 17:32 | 13.03982 | -61.10057 | 8993 ft | 257 kts | 220° |
| 2026-05-08 17:32 | 13.02610 | -61.11228 | 8996 ft | 257 kts | 218° |
| 2026-05-08 17:32 | 13.01185 | -61.12336 | 8997 ft | 257 kts | 216° |
| 2026-05-08 17:33 | 12.99761 | -61.13443 | 8992 ft | 256 kts | 218° |
| 2026-05-08 17:33 | 12.98354 | -61.14561 | 8997 ft | 257 kts | 218° |
| 2026-05-08 17:33 | 12.96939 | -61.15685 | 8996 ft | 257 kts | 218° |
| 2026-05-08 17:33 | 12.95529 | -61.16801 | 8990 ft | 257 kts | 218° |
| 2026-05-08 17:34 | 12.94108 | -61.17925 | 8986 ft | 257 kts | 218° |
| 2026-05-08 17:34 | 12.92696 | -61.19044 | 8993 ft | 257 kts | 218° |
| 2026-05-08 17:34 | 12.91278 | -61.20166 | 8990 ft | 257 kts | 218° |
| 2026-05-08 17:34 | 12.89864 | -61.21286 | 8978 ft | 257 kts | 218° |
| 2026-05-08 17:35 | 12.88463 | -61.22394 | 8981 ft | 257 kts | 218° |
| 2026-05-08 17:35 | 12.87029 | -61.23529 | 8985 ft | 257 kts | 218° |
| 2026-05-08 17:35 | 12.85631 | -61.24636 | 8985 ft | 257 kts | 218° |
| 2026-05-08 17:35 | 12.84218 | -61.25754 | 8978 ft | 257 kts | 218° |
| 2026-05-08 17:36 | 12.82796 | -61.26878 | 8983 ft | 257 kts | 218° |
| 2026-05-08 17:36 | 12.81377 | -61.28001 | 8984 ft | 257 kts | 218° |
| 2026-05-08 17:36 | 12.79961 | -61.29121 | 8978 ft | 257 kts | 218° |
| 2026-05-08 17:36 | 12.78540 | -61.30244 | 8981 ft | 257 kts | 218° |
| 2026-05-08 17:37 | 12.77125 | -61.31363 | 8980 ft | 257 kts | 218° |
| 2026-05-08 17:37 | 12.75707 | -61.32484 | 8976 ft | 257 kts | 218° |
| 2026-05-08 17:37 | 12.74306 | -61.33590 | 8976 ft | 257 kts | 218° |
| 2026-05-08 17:37 | 12.72890 | -61.34709 | 8968 ft | 257 kts | 218° |
| 2026-05-08 17:38 | 12.71466 | -61.35834 | 8981 ft | 257 kts | 218° |
| 2026-05-08 17:38 | 12.70056 | -61.36948 | 8982 ft | 257 kts | 218° |
| 2026-05-08 17:38 | 12.68636 | -61.38070 | 8976 ft | 257 kts | 218° |
| 2026-05-08 17:38 | 12.67223 | -61.39185 | 8983 ft | 257 kts | 218° |
| 2026-05-08 17:39 | 12.65807 | -61.40303 | 8984 ft | 257 kts | 218° |
| 2026-05-08 17:39 | 12.64387 | -61.41425 | 8985 ft | 257 kts | 218° |
| 2026-05-08 17:39 | 12.62970 | -61.42544 | 8974 ft | 257 kts | 218° |
| 2026-05-08 17:39 | 12.61555 | -61.43660 | 8986 ft | 257 kts | 218° |
| 2026-05-08 17:40 | 12.60134 | -61.44782 | 8895 ft | 253 kts | 218° |
| 2026-05-08 17:40 | 12.58806 | -61.45834 | 8577 ft | 230 kts | 218° |
| 2026-05-08 17:40 | 12.57591 | -61.46794 | 8248 ft | 213 kts | 217° |
| 2026-05-08 17:40 | 12.56453 | -61.47691 | 7927 ft | 200 kts | 217° |
| 2026-05-08 17:41 | 12.55390 | -61.48529 | 7614 ft | 191 kts | 217° |
| 2026-05-08 17:41 | 12.54354 | -61.49346 | 7296 ft | 184 kts | 217° |
| 2026-05-08 17:41 | 12.53352 | -61.50136 | 6999 ft | 179 kts | 217° |
| 2026-05-08 17:41 | 12.52377 | -61.50905 | 6695 ft | 175 kts | 217° |
| 2026-05-08 17:42 | 12.51417 | -61.51661 | 6395 ft | 172 kts | 217° |
| 2026-05-08 17:42 | 12.50474 | -61.52404 | 6072 ft | 170 kts | 217° |
| 2026-05-08 17:42 | 12.49540 | -61.53140 | 5753 ft | 169 kts | 216° |
| 2026-05-08 17:42 | 12.48615 | -61.53870 | 5438 ft | 168 kts | 215° |
| 2026-05-08 17:43 | 12.47687 | -61.54600 | 5126 ft | 168 kts | 214° |
| 2026-05-08 17:43 | 12.46771 | -61.55322 | 4813 ft | 168 kts | 214° |
| 2026-05-08 17:43 | 12.45849 | -61.56047 | 4495 ft | 166 kts | 217° |
| 2026-05-08 17:43 | 12.45065 | -61.56923 | 4166 ft | 167 kts | 229° |
| 2026-05-08 17:44 | 12.44332 | -61.57845 | 3860 ft | 168 kts | 227° |
| 2026-05-08 17:44 | 12.43574 | -61.58743 | 3543 ft | 166 kts | 226° |
| 2026-05-08 17:44 | 12.42810 | -61.59625 | 3231 ft | 165 kts | 225° |
| 2026-05-08 17:44 | 12.42293 | -61.60222 | 3019 ft | 166 kts | 225° |
| 2026-05-08 17:45 | 12.41573 | -61.61056 | 2979 ft | 150 kts | 226° |
| 2026-05-08 17:45 | 12.40905 | -61.61828 | 2967 ft | 138 kts | 224° |
| 2026-05-08 17:45 | 12.40266 | -61.62559 | 2979 ft | 144 kts | 224° |
| 2026-05-08 17:45 | 12.39569 | -61.63359 | 2987 ft | 154 kts | 225° |
| 2026-05-08 17:46 | 12.38852 | -61.64189 | 2989 ft | 162 kts | 226° |
| 2026-05-08 17:46 | 12.38094 | -61.65067 | 2985 ft | 167 kts | 226° |
| 2026-05-08 17:46 | 12.37313 | -61.65969 | 2988 ft | 172 kts | 226° |
| 2026-05-08 17:46 | 12.36511 | -61.66896 | 2984 ft | 176 kts | 226° |
| 2026-05-08 17:47 | 12.35693 | -61.67841 | 2988 ft | 179 kts | 226° |
| 2026-05-08 17:47 | 12.34863 | -61.68799 | 2988 ft | 180 kts | 226° |
| 2026-05-08 17:47 | 12.34025 | -61.69765 | 2982 ft | 182 kts | 225° |
| 2026-05-08 17:47 | 12.33182 | -61.70737 | 2983 ft | 183 kts | 226° |
| 2026-05-08 17:48 | 12.32340 | -61.71709 | 2983 ft | 183 kts | 225° |
| 2026-05-08 17:48 | 12.31504 | -61.72673 | 2983 ft | 183 kts | 226° |
| 2026-05-08 17:48 | 12.30625 | -61.73682 | 2991 ft | 204 kts | 225° |
| 2026-05-08 17:48 | 12.29624 | -61.74830 | 2985 ft | 225 kts | 226° |
| 2026-05-08 17:49 | 12.28560 | -61.76062 | 2986 ft | 236 kts | 226° |
| 2026-05-08 17:49 | 12.27459 | -61.77336 | 2985 ft | 241 kts | 227° |
| 2026-05-08 17:49 | 12.26341 | -61.78625 | 2982 ft | 244 kts | 226° |
| 2026-05-08 17:49 | 12.25207 | -61.79930 | 2984 ft | 245 kts | 226° |
| 2026-05-08 17:50 | 12.24070 | -61.81242 | 2977 ft | 246 kts | 227° |
| 2026-05-08 17:50 | 12.22945 | -61.82555 | 2978 ft | 246 kts | 227° |
| 2026-05-08 17:50 | 12.21817 | -61.83875 | 2983 ft | 247 kts | 227° |
| 2026-05-08 17:50 | 12.20683 | -61.85196 | 2979 ft | 248 kts | 227° |
| 2026-05-08 17:51 | 12.19548 | -61.86517 | 2978 ft | 247 kts | 227° |
| 2026-05-08 17:51 | 12.18427 | -61.87822 | 2977 ft | 247 kts | 226° |
| 2026-05-08 17:51 | 12.17278 | -61.89160 | 2977 ft | 247 kts | 227° |
| 2026-05-08 17:51 | 12.16156 | -61.90466 | 2977 ft | 248 kts | 226° |
| 2026-05-08 17:52 | 12.15018 | -61.91791 | 2976 ft | 248 kts | 227° |
| 2026-05-08 17:52 | 12.13886 | -61.93110 | 2980 ft | 248 kts | 226° |
| 2026-05-08 17:52 | 12.11569 | -61.95710 | 2972 ft | 245 kts | 217° |
| 2026-05-08 17:53 | 12.10130 | -61.96588 | 2976 ft | 241 kts | 199° |
| 2026-05-08 17:53 | 12.08518 | -61.96988 | 2972 ft | 237 kts | 182° |
| 2026-05-08 17:53 | 12.06890 | -61.97011 | 2973 ft | 233 kts | 177° |
| 2026-05-08 17:53 | 12.05273 | -61.97014 | 2974 ft | 232 kts | 175° |
| 2026-05-08 17:54 | 12.03707 | -61.96713 | 2974 ft | 228 kts | 156° |
| 2026-05-08 17:54 | 12.02362 | -61.95943 | 2968 ft | 216 kts | 139° |
| 2026-05-08 17:54 | 12.01411 | -61.94931 | 2893 ft | 179 kts | 122° |
| 2026-05-08 17:54 | 12.00841 | -61.93876 | 2658 ft | 162 kts | 110° |
| 2026-05-08 17:55 | 12.00548 | -61.92820 | 2405 ft | 149 kts | 98° |
| 2026-05-08 17:55 | 12.00480 | -61.91790 | 2160 ft | 139 kts | 88° |
| 2026-05-08 17:55 | 12.00478 | -61.90887 | 1977 ft | 114 kts | 89° |
| 2026-05-08 17:55 | 12.00472 | -61.90097 | 1972 ft | 111 kts | 89° |
| 2026-05-08 17:56 | 12.00468 | -61.89275 | 1840 ft | 117 kts | 90° |
| 2026-05-08 17:56 | 12.00462 | -61.88449 | 1693 ft | 115 kts | 90° |
| 2026-05-08 17:56 | 12.00457 | -61.87667 | 1683 ft | 109 kts | 90° |
| 2026-05-08 17:56 | 12.00452 | -61.86976 | 1650 ft | 87 kts | 90° |
| 2026-05-08 17:57 | 12.00438 | -61.86337 | 1403 ft | 88 kts | 93° |
| 2026-05-08 17:57 | 12.00391 | -61.85737 | 1088 ft | 89 kts | 92° |
| 2026-05-08 17:57 | 12.00374 | -61.85103 | 939 ft | 90 kts | 89° |
| 2026-05-08 17:57 | 12.00417 | -61.84442 | 799 ft | 94 kts | 89° |
| 2026-05-08 17:58 | 12.00454 | -61.83817 | 689 ft | 86 kts | 92° |
| 2026-05-08 17:58 | 12.00471 | -61.83175 | 567 ft | 92 kts | 94° |
| 2026-05-08 17:58 | 12.00470 | -61.82517 | 520 ft | 93 kts | 97° |
| 2026-05-08 17:58 | 12.00451 | -61.81877 | 449 ft | 83 kts | 97° |
| 2026-05-08 17:59 | 12.00440 | -61.81306 | 314 ft | 78 kts | 97° |
| 2026-05-08 17:59 | 12.00432 | -61.80753 | 189 ft | 79 kts | 96° |
| 2026-05-08 17:59 | 12.00423 | -61.80219 | 125 ft | 72 kts | 99° |
| 2026-05-08 17:59 | 12.00420 | -61.79719 | 45 ft | 65 kts | 98° |
| 2026-05-08 18:00 | 12.00410 | -61.79337 | 34 ft | 45 kts | 90° |
| 2026-05-08 18:00 | 12.00407 | -61.78983 | 37 ft | 22 kts | 86° |
| 2026-05-08 18:00 | 12.00407 | -61.78834 | 38 ft | 21 kts | 90° |
| 2026-05-08 18:01 | 12.00409 | -61.78687 | 38 ft | 21 kts | 89° |
| 2026-05-08 18:01 | 12.00475 | -61.78596 | 38 ft | 18 kts | 1° |
| 2026-05-08 18:01 | 12.00586 | -61.78601 | 41 ft | 15 kts | 47° |
| 2026-05-08 18:01 | 12.00588 | -61.78479 | 41 ft | 17 kts | 93° |
| 2026-05-08 18:02 | 12.00649 | -61.78443 | 43 ft | 12 kts | 8° |
| 2026-05-08 18:02 | 12.00667 | -61.78443 | 44 ft | 1 kts | 359° |
| 2026-05-08 18:02 | 12.00668 | -61.78443 | 44 ft | 0 kts | 359° |